sensor_id;sensor_type;location;lat;lon;timestamp;pressure;altitude;pressure_sealevel;temperature
54746;BMP180;40640;48.130;11.356;2023-04-12T00:02:37;95174.00;;;7.70
54746;BMP180;40640;48.130;11.356;2023-04-12T00:06:41;95171.00;;;7.70
54746;BMP180;40640;48.130;11.356;2023-04-12T00:10:49;95166.00;;;7.60
54746;BMP180;40640;48.130;11.356;2023-04-12T00:14:53;95159.00;;;7.40
54746;BMP180;40640;48.130;11.356;2023-04-12T00:18:56;95157.00;;;7.40
54746;BMP180;40640;48.130;11.356;2023-04-12T00:22:59;95150.00;;;7.20
54746;BMP180;40640;48.130;11.356;2023-04-12T00:27:02;95137.00;;;7.30
54746;BMP180;40640;48.130;11.356;2023-04-12T00:31:07;95134.00;;;7.50
54746;BMP180;40640;48.130;11.356;2023-04-12T00:35:10;95139.00;;;7.60
54746;BMP180;40640;48.130;11.356;2023-04-12T00:39:13;95143.00;;;7.60
54746;BMP180;40640;48.130;11.356;2023-04-12T00:43:16;95131.00;;;7.60
54746;BMP180;40640;48.130;11.356;2023-04-12T00:47:21;95129.00;;;7.60
54746;BMP180;40640;48.130;11.356;2023-04-12T00:51:26;95128.00;;;7.50
54746;BMP180;40640;48.130;11.356;2023-04-12T00:55:33;95121.00;;;7.40
54746;BMP180;40640;48.130;11.356;2023-04-12T00:59:37;95102.00;;;7.50
54746;BMP180;40640;48.130;11.356;2023-04-12T01:03:41;95107.00;;;7.50
54746;BMP180;40640;48.130;11.356;2023-04-12T01:07:47;95104.00;;;7.50
54746;BMP180;40640;48.130;11.356;2023-04-12T01:12:05;95105.00;;;7.70
54746;BMP180;40640;48.130;11.356;2023-04-12T01:16:21;95110.00;;;7.70
54746;BMP180;40640;48.130;11.356;2023-04-12T01:20:34;95117.00;;;7.60
54746;BMP180;40640;48.130;11.356;2023-04-12T01:24:46;95109.00;;;7.70
54746;BMP180;40640;48.130;11.356;2023-04-12T01:29:11;95116.00;;;7.80
54746;BMP180;40640;48.130;11.356;2023-04-12T01:33:15;95107.00;;;7.80
54746;BMP180;40640;48.130;11.356;2023-04-12T01:37:20;95115.00;;;8.00
54746;BMP180;40640;48.130;11.356;2023-04-12T01:41:23;95099.00;;;7.90
54746;BMP180;40640;48.130;11.356;2023-04-12T01:45:28;95112.00;;;7.90
54746;BMP180;40640;48.130;11.356;2023-04-12T01:49:35;95110.00;;;7.80
54746;BMP180;40640;48.130;11.356;2023-04-12T01:53:45;95109.00;;;7.80
54746;BMP180;40640;48.130;11.356;2023-04-12T01:57:51;95096.00;;;7.80
54746;BMP180;40640;48.130;11.356;2023-04-12T02:01:56;95101.00;;;7.70
54746;BMP180;40640;48.130;11.356;2023-04-12T02:06:01;95105.00;;;7.70
54746;BMP180;40640;48.130;11.356;2023-04-12T02:10:05;95103.00;;;7.70
54746;BMP180;40640;48.130;11.356;2023-04-12T02:14:08;95110.00;;;7.70
54746;BMP180;40640;48.130;11.356;2023-04-12T02:18:12;95099.00;;;7.70
54746;BMP180;40640;48.130;11.356;2023-04-12T02:22:17;95101.00;;;7.70
54746;BMP180;40640;48.130;11.356;2023-04-12T02:26:21;95097.00;;;7.70
54746;BMP180;40640;48.130;11.356;2023-04-12T02:30:25;95105.00;;;7.90
54746;BMP180;40640;48.130;11.356;2023-04-12T02:34:29;95103.00;;;7.90
54746;BMP180;40640;48.130;11.356;2023-04-12T02:38:43;95105.00;;;7.70
54746;BMP180;40640;48.130;11.356;2023-04-12T02:42:47;95090.00;;;7.80
54746;BMP180;40640;48.130;11.356;2023-04-12T02:46:50;95088.00;;;7.70
54746;BMP180;40640;48.130;11.356;2023-04-12T02:50:54;95087.00;;;7.70
54746;BMP180;40640;48.130;11.356;2023-04-12T02:54:59;95075.00;;;7.60
54746;BMP180;40640;48.130;11.356;2023-04-12T02:59:03;95081.00;;;7.50
54746;BMP180;40640;48.130;11.356;2023-04-12T03:03:24;95076.00;;;7.60
54746;BMP180;40640;48.130;11.356;2023-04-12T03:07:32;95069.00;;;7.60
54746;BMP180;40640;48.130;11.356;2023-04-12T03:11:36;95065.00;;;7.30
54746;BMP180;40640;48.130;11.356;2023-04-12T03:15:43;95050.00;;;7.40
54746;BMP180;40640;48.130;11.356;2023-04-12T03:19:47;95041.00;;;7.20
54746;BMP180;40640;48.130;11.356;2023-04-12T03:23:55;95038.00;;;7.40
54746;BMP180;40640;48.130;11.356;2023-04-12T03:27:58;95039.00;;;7.40
54746;BMP180;40640;48.130;11.356;2023-04-12T03:32:17;95021.00;;;7.00
54746;BMP180;40640;48.130;11.356;2023-04-12T03:36:21;95023.00;;;7.30
54746;BMP180;40640;48.130;11.356;2023-04-12T03:40:34;95024.00;;;7.10
54746;BMP180;40640;48.130;11.356;2023-04-12T03:44:37;95010.00;;;7.10
54746;BMP180;40640;48.130;11.356;2023-04-12T03:48:44;95006.00;;;6.90
54746;BMP180;40640;48.130;11.356;2023-04-12T03:52:49;95012.00;;;7.00
54746;BMP180;40640;48.130;11.356;2023-04-12T03:56:53;94996.00;;;7.10
54746;BMP180;40640;48.130;11.356;2023-04-12T04:01:02;94989.00;;;6.90
54746;BMP180;40640;48.130;11.356;2023-04-12T04:05:08;94985.00;;;6.90
54746;BMP180;40640;48.130;11.356;2023-04-12T04:09:13;94969.00;;;6.80
54746;BMP180;40640;48.130;11.356;2023-04-12T04:13:18;94978.00;;;6.80
54746;BMP180;40640;48.130;11.356;2023-04-12T04:17:22;94967.00;;;6.80
54746;BMP180;40640;48.130;11.356;2023-04-12T04:21:27;94969.00;;;6.80
54746;BMP180;40640;48.130;11.356;2023-04-12T04:25:32;94970.00;;;6.80
54746;BMP180;40640;48.130;11.356;2023-04-12T04:29:40;94972.00;;;6.90
54746;BMP180;40640;48.130;11.356;2023-04-12T04:33:48;94961.00;;;6.50
54746;BMP180;40640;48.130;11.356;2023-04-12T04:37:52;94951.00;;;6.60
54746;BMP180;40640;48.130;11.356;2023-04-12T04:41:56;94946.00;;;6.50
54746;BMP180;40640;48.130;11.356;2023-04-12T04:46:23;94945.00;;;6.50
54746;BMP180;40640;48.130;11.356;2023-04-12T04:50:26;94934.00;;;6.50
54746;BMP180;40640;48.130;11.356;2023-04-12T04:54:30;94935.00;;;6.40
54746;BMP180;40640;48.130;11.356;2023-04-12T04:58:34;94929.00;;;6.60
54746;BMP180;40640;48.130;11.356;2023-04-12T05:02:40;94932.00;;;6.70
54746;BMP180;40640;48.130;11.356;2023-04-12T05:06:48;94913.00;;;6.60
54746;BMP180;40640;48.130;11.356;2023-04-12T05:10:55;94919.00;;;6.70
54746;BMP180;40640;48.130;11.356;2023-04-12T05:15:02;94916.00;;;6.60
54746;BMP180;40640;48.130;11.356;2023-04-12T05:19:14;94908.00;;;6.60
54746;BMP180;40640;48.130;11.356;2023-04-12T05:23:17;94898.00;;;6.60
54746;BMP180;40640;48.130;11.356;2023-04-12T05:27:20;94896.00;;;6.70
54746;BMP180;40640;48.130;11.356;2023-04-12T05:31:24;94884.00;;;6.60
54746;BMP180;40640;48.130;11.356;2023-04-12T05:35:30;94886.00;;;6.70
54746;BMP180;40640;48.130;11.356;2023-04-12T05:39:33;94893.00;;;6.70
54746;BMP180;40640;48.130;11.356;2023-04-12T05:43:36;94876.00;;;6.90
54746;BMP180;40640;48.130;11.356;2023-04-12T05:47:41;94873.00;;;6.90
54746;BMP180;40640;48.130;11.356;2023-04-12T05:51:46;94871.00;;;6.90
54746;BMP180;40640;48.130;11.356;2023-04-12T05:55:55;94861.00;;;6.80
54746;BMP180;40640;48.130;11.356;2023-04-12T05:59:58;94858.00;;;6.90
54746;BMP180;40640;48.130;11.356;2023-04-12T06:04:02;94857.00;;;7.00
54746;BMP180;40640;48.130;11.356;2023-04-12T06:08:08;94862.00;;;7.10
54746;BMP180;40640;48.130;11.356;2023-04-12T06:12:15;94853.00;;;7.10
54746;BMP180;40640;48.130;11.356;2023-04-12T06:16:18;94843.00;;;7.10
54746;BMP180;40640;48.130;11.356;2023-04-12T06:20:21;94830.00;;;7.10
54746;BMP180;40640;48.130;11.356;2023-04-12T06:24:26;94840.00;;;7.10
54746;BMP180;40640;48.130;11.356;2023-04-12T06:28:29;94829.00;;;7.20
54746;BMP180;40640;48.130;11.356;2023-04-12T06:32:32;94826.00;;;7.30
54746;BMP180;40640;48.130;11.356;2023-04-12T06:36:35;94823.00;;;7.30
54746;BMP180;40640;48.130;11.356;2023-04-12T06:40:42;94815.00;;;7.40
54746;BMP180;40640;48.130;11.356;2023-04-12T06:44:45;94819.00;;;7.50
54746;BMP180;40640;48.130;11.356;2023-04-12T06:48:47;94821.00;;;7.50
54746;BMP180;40640;48.130;11.356;2023-04-12T06:52:50;94816.00;;;7.60
54746;BMP180;40640;48.130;11.356;2023-04-12T06:56:54;94816.00;;;7.60
54746;BMP180;40640;48.130;11.356;2023-04-12T07:01:03;94811.00;;;7.80
54746;BMP180;40640;48.130;11.356;2023-04-12T07:05:07;94806.00;;;7.90
54746;BMP180;40640;48.130;11.356;2023-04-12T07:09:10;94801.00;;;7.90
54746;BMP180;40640;48.130;11.356;2023-04-12T07:13:15;94815.00;;;7.80
54746;BMP180;40640;48.130;11.356;2023-04-12T07:17:18;94804.00;;;8.00
54746;BMP180;40640;48.130;11.356;2023-04-12T07:21:21;94810.00;;;8.20
54746;BMP180;40640;48.130;11.356;2023-04-12T07:25:24;94795.00;;;8.10
54746;BMP180;40640;48.130;11.356;2023-04-12T07:29:28;94803.00;;;8.10
54746;BMP180;40640;48.130;11.356;2023-04-12T07:33:31;94779.00;;;8.10
54746;BMP180;40640;48.130;11.356;2023-04-12T07:37:36;94770.00;;;8.30
54746;BMP180;40640;48.130;11.356;2023-04-12T07:41:41;94760.00;;;8.50
54746;BMP180;40640;48.130;11.356;2023-04-12T07:45:48;94747.00;;;8.60
54746;BMP180;40640;48.130;11.356;2023-04-12T07:49:51;94752.00;;;8.70
54746;BMP180;40640;48.130;11.356;2023-04-12T07:53:53;94745.00;;;8.80
54746;BMP180;40640;48.130;11.356;2023-04-12T07:57:57;94737.00;;;8.80
54746;BMP180;40640;48.130;11.356;2023-04-12T08:02:01;94741.00;;;8.90
54746;BMP180;40640;48.130;11.356;2023-04-12T08:06:07;94735.00;;;8.90
54746;BMP180;40640;48.130;11.356;2023-04-12T08:10:10;94726.00;;;9.00
54746;BMP180;40640;48.130;11.356;2023-04-12T08:14:13;94716.00;;;9.00
54746;BMP180;40640;48.130;11.356;2023-04-12T08:18:18;94718.00;;;9.00
54746;BMP180;40640;48.130;11.356;2023-04-12T08:22:21;94714.00;;;9.00
54746;BMP180;40640;48.130;11.356;2023-04-12T08:26:24;94706.00;;;9.10
54746;BMP180;40640;48.130;11.356;2023-04-12T08:30:29;94694.00;;;9.20
54746;BMP180;40640;48.130;11.356;2023-04-12T08:34:33;94679.00;;;9.20
54746;BMP180;40640;48.130;11.356;2023-04-12T08:38:36;94677.00;;;9.20
54746;BMP180;40640;48.130;11.356;2023-04-12T08:42:46;94667.00;;;9.20
54746;BMP180;40640;48.130;11.356;2023-04-12T08:46:50;94658.00;;;9.10
54746;BMP180;40640;48.130;11.356;2023-04-12T08:50:55;94658.00;;;9.30
54746;BMP180;40640;48.130;11.356;2023-04-12T08:55:01;94647.00;;;9.50
54746;BMP180;40640;48.130;11.356;2023-04-12T08:59:04;94645.00;;;9.40
54746;BMP180;40640;48.130;11.356;2023-04-12T09:03:07;94647.00;;;9.40
54746;BMP180;40640;48.130;11.356;2023-04-12T09:07:12;94639.00;;;9.90
54746;BMP180;40640;48.130;11.356;2023-04-12T09:11:22;94632.00;;;10.10
54746;BMP180;40640;48.130;11.356;2023-04-12T09:15:26;94630.00;;;10.30
54746;BMP180;40640;48.130;11.356;2023-04-12T09:19:33;94639.00;;;10.70
54746;BMP180;40640;48.130;11.356;2023-04-12T09:23:37;94625.00;;;11.30
54746;BMP180;40640;48.130;11.356;2023-04-12T09:27:47;94613.00;;;11.60
54746;BMP180;40640;48.130;11.356;2023-04-12T09:31:59;94608.00;;;12.00
54746;BMP180;40640;48.130;11.356;2023-04-12T09:36:04;94602.00;;;12.00
54746;BMP180;40640;48.130;11.356;2023-04-12T09:40:11;94604.00;;;11.90
54746;BMP180;40640;48.130;11.356;2023-04-12T09:44:27;94584.00;;;12.10
54746;BMP180;40640;48.130;11.356;2023-04-12T09:48:30;94580.00;;;12.10
54746;BMP180;40640;48.130;11.356;2023-04-12T09:52:37;94585.00;;;12.50
54746;BMP180;40640;48.130;11.356;2023-04-12T09:56:42;94575.00;;;13.40
54746;BMP180;40640;48.130;11.356;2023-04-12T10:00:46;94572.00;;;13.60
54746;BMP180;40640;48.130;11.356;2023-04-12T10:04:49;94574.00;;;13.60
54746;BMP180;40640;48.130;11.356;2023-04-12T10:08:53;94563.00;;;13.70
54746;BMP180;40640;48.130;11.356;2023-04-12T10:12:59;94546.00;;;14.00
54746;BMP180;40640;48.130;11.356;2023-04-12T10:17:03;94553.00;;;15.10
54746;BMP180;40640;48.130;11.356;2023-04-12T10:21:07;94555.00;;;15.70
54746;BMP180;40640;48.130;11.356;2023-04-12T10:25:11;94537.00;;;15.70
54746;BMP180;40640;48.130;11.356;2023-04-12T10:29:29;94538.00;;;15.90
54746;BMP180;40640;48.130;11.356;2023-04-12T10:33:32;94537.00;;;16.20
54746;BMP180;40640;48.130;11.356;2023-04-12T10:37:59;94529.00;;;16.70
54746;BMP180;40640;48.130;11.356;2023-04-12T10:42:16;94518.00;;;17.10
54746;BMP180;40640;48.130;11.356;2023-04-12T10:46:47;94516.00;;;17.00
54746;BMP180;40640;48.130;11.356;2023-04-12T10:51:11;94507.00;;;15.90
54746;BMP180;40640;48.130;11.356;2023-04-12T10:55:32;94517.00;;;15.60
54746;BMP180;40640;48.130;11.356;2023-04-12T10:59:51;94517.00;;;15.70
54746;BMP180;40640;48.130;11.356;2023-04-12T11:04:14;94494.00;;;15.50
54746;BMP180;40640;48.130;11.356;2023-04-12T11:08:27;94494.00;;;15.20
54746;BMP180;40640;48.130;11.356;2023-04-12T11:13:04;94495.00;;;14.90
54746;BMP180;40640;48.130;11.356;2023-04-12T11:17:20;94487.00;;;15.10
54746;BMP180;40640;48.130;11.356;2023-04-12T11:21:26;94489.00;;;15.40
54746;BMP180;40640;48.130;11.356;2023-04-12T11:25:30;94467.00;;;15.20
54746;BMP180;40640;48.130;11.356;2023-04-12T11:29:33;94463.00;;;15.20
54746;BMP180;40640;48.130;11.356;2023-04-12T11:33:37;94469.00;;;15.20
54746;BMP180;40640;48.130;11.356;2023-04-12T11:37:42;94459.00;;;15.10
54746;BMP180;40640;48.130;11.356;2023-04-12T11:41:45;94452.00;;;15.30
54746;BMP180;40640;48.130;11.356;2023-04-12T11:45:48;94456.00;;;15.20
54746;BMP180;40640;48.130;11.356;2023-04-12T11:49:57;94456.00;;;15.30
54746;BMP180;40640;48.130;11.356;2023-04-12T11:54:01;94463.00;;;15.30
54746;BMP180;40640;48.130;11.356;2023-04-12T11:58:05;94453.00;;;15.50
54746;BMP180;40640;48.130;11.356;2023-04-12T12:02:08;94448.00;;;15.70
54746;BMP180;40640;48.130;11.356;2023-04-12T12:06:24;94450.00;;;16.00
54746;BMP180;40640;48.130;11.356;2023-04-12T12:10:30;94458.00;;;16.00
54746;BMP180;40640;48.130;11.356;2023-04-12T12:14:52;94449.00;;;15.60
54746;BMP180;40640;48.130;11.356;2023-04-12T12:18:55;94447.00;;;15.90
54746;BMP180;40640;48.130;11.356;2023-04-12T12:22:58;94459.00;;;16.10
54746;BMP180;40640;48.130;11.356;2023-04-12T12:27:03;94458.00;;;15.80
54746;BMP180;40640;48.130;11.356;2023-04-12T12:31:08;94456.00;;;15.50
54746;BMP180;40640;48.130;11.356;2023-04-12T12:35:13;94442.00;;;16.10
54746;BMP180;40640;48.130;11.356;2023-04-12T12:39:16;94436.00;;;16.70
54746;BMP180;40640;48.130;11.356;2023-04-12T12:43:20;94442.00;;;16.60
54746;BMP180;40640;48.130;11.356;2023-04-12T12:47:23;94441.00;;;16.40
54746;BMP180;40640;48.130;11.356;2023-04-12T12:51:26;94445.00;;;16.30
54746;BMP180;40640;48.130;11.356;2023-04-12T12:55:29;94450.00;;;16.40
54746;BMP180;40640;48.130;11.356;2023-04-12T12:59:34;94441.00;;;16.50
54746;BMP180;40640;48.130;11.356;2023-04-12T13:03:37;94435.00;;;16.60
54746;BMP180;40640;48.130;11.356;2023-04-12T13:07:40;94421.00;;;16.50
54746;BMP180;40640;48.130;11.356;2023-04-12T13:11:43;94421.00;;;16.40
54746;BMP180;40640;48.130;11.356;2023-04-12T13:15:48;94421.00;;;16.40
54746;BMP180;40640;48.130;11.356;2023-04-12T13:19:53;94409.00;;;16.30
54746;BMP180;40640;48.130;11.356;2023-04-12T13:23:56;94412.00;;;16.00
54746;BMP180;40640;48.130;11.356;2023-04-12T13:27:59;94413.00;;;15.70
54746;BMP180;40640;48.130;11.356;2023-04-12T13:32:03;94409.00;;;15.40
54746;BMP180;40640;48.130;11.356;2023-04-12T13:36:06;94406.00;;;15.20
54746;BMP180;40640;48.130;11.356;2023-04-12T13:40:10;94409.00;;;15.20
54746;BMP180;40640;48.130;11.356;2023-04-12T13:44:12;94411.00;;;15.10
54746;BMP180;40640;48.130;11.356;2023-04-12T13:48:17;94405.00;;;15.20
54746;BMP180;40640;48.130;11.356;2023-04-12T13:52:20;94399.00;;;15.40
54746;BMP180;40640;48.130;11.356;2023-04-12T13:56:23;94395.00;;;15.50
54746;BMP180;40640;48.130;11.356;2023-04-12T14:00:27;94389.00;;;16.40
54746;BMP180;40640;48.130;11.356;2023-04-12T14:04:31;94391.00;;;17.60
54746;BMP180;40640;48.130;11.356;2023-04-12T14:08:34;94388.00;;;17.50
54746;BMP180;40640;48.130;11.356;2023-04-12T14:12:37;94376.00;;;17.40
54746;BMP180;40640;48.130;11.356;2023-04-12T14:16:40;94375.00;;;17.30
54746;BMP180;40640;48.130;11.356;2023-04-12T14:20:46;94372.00;;;17.30
54746;BMP180;40640;48.130;11.356;2023-04-12T14:24:52;94357.00;;;17.10
54746;BMP180;40640;48.130;11.356;2023-04-12T14:28:55;94355.00;;;17.00
54746;BMP180;40640;48.130;11.356;2023-04-12T14:32:58;94349.00;;;16.60
54746;BMP180;40640;48.130;11.356;2023-04-12T14:37:02;94343.00;;;16.50
54746;BMP180;40640;48.130;11.356;2023-04-12T14:41:07;94340.00;;;16.40
54746;BMP180;40640;48.130;11.356;2023-04-12T14:45:10;94349.00;;;16.30
54746;BMP180;40640;48.130;11.356;2023-04-12T14:49:13;94333.00;;;16.20
54746;BMP180;40640;48.130;11.356;2023-04-12T14:53:18;94333.00;;;15.90
54746;BMP180;40640;48.130;11.356;2023-04-12T14:57:21;94338.00;;;15.80
54746;BMP180;40640;48.130;11.356;2023-04-12T15:01:24;94333.00;;;15.70
54746;BMP180;40640;48.130;11.356;2023-04-12T15:05:28;94335.00;;;15.50
54746;BMP180;40640;48.130;11.356;2023-04-12T15:09:32;94322.00;;;15.60
54746;BMP180;40640;48.130;11.356;2023-04-12T15:13:35;94322.00;;;15.50
54746;BMP180;40640;48.130;11.356;2023-04-12T15:17:40;94308.00;;;15.40
54746;BMP180;40640;48.130;11.356;2023-04-12T15:21:43;94323.00;;;15.40
54746;BMP180;40640;48.130;11.356;2023-04-12T15:25:48;94317.00;;;15.30
54746;BMP180;40640;48.130;11.356;2023-04-12T15:29:51;94313.00;;;15.30
54746;BMP180;40640;48.130;11.356;2023-04-12T15:33:54;94314.00;;;15.10
54746;BMP180;40640;48.130;11.356;2023-04-12T15:38:01;94311.00;;;15.10
54746;BMP180;40640;48.130;11.356;2023-04-12T15:42:06;94290.00;;;15.00
54746;BMP180;40640;48.130;11.356;2023-04-12T15:46:12;94299.00;;;14.90
54746;BMP180;40640;48.130;11.356;2023-04-12T15:50:18;94290.00;;;14.90
54746;BMP180;40640;48.130;11.356;2023-04-12T15:54:21;94308.00;;;14.90
54746;BMP180;40640;48.130;11.356;2023-04-12T15:58:25;94295.00;;;14.80
54746;BMP180;40640;48.130;11.356;2023-04-12T16:02:28;94298.00;;;14.90
54746;BMP180;40640;48.130;11.356;2023-04-12T16:06:31;94295.00;;;14.90
54746;BMP180;40640;48.130;11.356;2023-04-12T16:10:35;94294.00;;;14.90
54746;BMP180;40640;48.130;11.356;2023-04-12T16:14:42;94298.00;;;14.90
54746;BMP180;40640;48.130;11.356;2023-04-12T16:18:45;94294.00;;;14.80
54746;BMP180;40640;48.130;11.356;2023-04-12T16:22:48;94304.00;;;14.90
54746;BMP180;40640;48.130;11.356;2023-04-12T16:26:54;94290.00;;;14.70
54746;BMP180;40640;48.130;11.356;2023-04-12T16:30:59;94284.00;;;14.70
54746;BMP180;40640;48.130;11.356;2023-04-12T16:35:03;94289.00;;;14.70
54746;BMP180;40640;48.130;11.356;2023-04-12T16:39:06;94291.00;;;14.60
54746;BMP180;40640;48.130;11.356;2023-04-12T16:43:11;94280.00;;;14.70
54746;BMP180;40640;48.130;11.356;2023-04-12T16:47:15;94273.00;;;14.50
54746;BMP180;40640;48.130;11.356;2023-04-12T16:51:18;94284.00;;;14.60
54746;BMP180;40640;48.130;11.356;2023-04-12T16:55:23;94274.00;;;14.50
54746;BMP180;40640;48.130;11.356;2023-04-12T16:59:26;94284.00;;;14.50
54746;BMP180;40640;48.130;11.356;2023-04-12T17:03:30;94283.00;;;14.50
54746;BMP180;40640;48.130;11.356;2023-04-12T17:07:33;94267.00;;;14.50
54746;BMP180;40640;48.130;11.356;2023-04-12T17:11:36;94275.00;;;14.50
54746;BMP180;40640;48.130;11.356;2023-04-12T17:15:38;94269.00;;;14.40
54746;BMP180;40640;48.130;11.356;2023-04-12T17:19:43;94272.00;;;14.40
54746;BMP180;40640;48.130;11.356;2023-04-12T17:23:47;94279.00;;;14.30
54746;BMP180;40640;48.130;11.356;2023-04-12T17:27:50;94270.00;;;14.30
54746;BMP180;40640;48.130;11.356;2023-04-12T17:31:53;94267.00;;;14.30
54746;BMP180;40640;48.130;11.356;2023-04-12T17:35:58;94265.00;;;14.30
54746;BMP180;40640;48.130;11.356;2023-04-12T17:40:02;94271.00;;;14.10
54746;BMP180;40640;48.130;11.356;2023-04-12T17:44:06;94256.00;;;14.10
54746;BMP180;40640;48.130;11.356;2023-04-12T17:48:09;94264.00;;;14.10
54746;BMP180;40640;48.130;11.356;2023-04-12T17:52:16;94279.00;;;14.00
54746;BMP180;40640;48.130;11.356;2023-04-12T17:56:19;94283.00;;;13.90
54746;BMP180;40640;48.130;11.356;2023-04-12T18:00:22;94286.00;;;14.00
54746;BMP180;40640;48.130;11.356;2023-04-12T18:04:27;94299.00;;;13.80
54746;BMP180;40640;48.130;11.356;2023-04-12T18:08:31;94299.00;;;14.00
54746;BMP180;40640;48.130;11.356;2023-04-12T18:12:34;94287.00;;;13.80
54746;BMP180;40640;48.130;11.356;2023-04-12T18:16:39;94298.00;;;13.60
54746;BMP180;40640;48.130;11.356;2023-04-12T18:20:42;94308.00;;;13.60
54746;BMP180;40640;48.130;11.356;2023-04-12T18:24:46;94317.00;;;13.60
54746;BMP180;40640;48.130;11.356;2023-04-12T18:28:49;94313.00;;;13.50
54746;BMP180;40640;48.130;11.356;2023-04-12T18:32:52;94329.00;;;13.40
54746;BMP180;40640;48.130;11.356;2023-04-12T18:36:56;94350.00;;;13.10
54746;BMP180;40640;48.130;11.356;2023-04-12T18:41:01;94355.00;;;13.40
54746;BMP180;40640;48.130;11.356;2023-04-12T18:45:05;94359.00;;;13.30
54746;BMP180;40640;48.130;11.356;2023-04-12T18:49:09;94368.00;;;13.10
54746;BMP180;40640;48.130;11.356;2023-04-12T18:53:14;94358.00;;;12.90
54746;BMP180;40640;48.130;11.356;2023-04-12T18:57:19;94371.00;;;12.60
54746;BMP180;40640;48.130;11.356;2023-04-12T19:01:22;94376.00;;;12.70
54746;BMP180;40640;48.130;11.356;2023-04-12T19:05:26;94375.00;;;12.80
54746;BMP180;40640;48.130;11.356;2023-04-12T19:09:29;94379.00;;;12.50
54746;BMP180;40640;48.130;11.356;2023-04-12T19:13:34;94381.00;;;12.30
54746;BMP180;40640;48.130;11.356;2023-04-12T19:17:37;94375.00;;;12.60
54746;BMP180;40640;48.130;11.356;2023-04-12T19:21:40;94382.00;;;12.50
54746;BMP180;40640;48.130;11.356;2023-04-12T19:25:43;94381.00;;;12.20
54746;BMP180;40640;48.130;11.356;2023-04-12T19:29:49;94381.00;;;12.40
54746;BMP180;40640;48.130;11.356;2023-04-12T19:33:53;94394.00;;;12.60
54746;BMP180;40640;48.130;11.356;2023-04-12T19:37:56;94387.00;;;12.30
54746;BMP180;40640;48.130;11.356;2023-04-12T19:41:59;94395.00;;;12.20
54746;BMP180;40640;48.130;11.356;2023-04-12T19:46:05;94383.00;;;12.40
54746;BMP180;40640;48.130;11.356;2023-04-12T19:50:09;94395.00;;;12.00
54746;BMP180;40640;48.130;11.356;2023-04-12T19:54:12;94401.00;;;12.00
54746;BMP180;40640;48.130;11.356;2023-04-12T19:58:15;94390.00;;;12.10
54746;BMP180;40640;48.130;11.356;2023-04-12T20:02:19;94391.00;;;11.90
54746;BMP180;40640;48.130;11.356;2023-04-12T20:06:22;94396.00;;;12.00
54746;BMP180;40640;48.130;11.356;2023-04-12T20:10:29;94399.00;;;12.00
54746;BMP180;40640;48.130;11.356;2023-04-12T20:14:31;94412.00;;;11.90
54746;BMP180;40640;48.130;11.356;2023-04-12T20:18:38;94407.00;;;11.70
54746;BMP180;40640;48.130;11.356;2023-04-12T20:22:43;94417.00;;;11.70
54746;BMP180;40640;48.130;11.356;2023-04-12T20:26:46;94435.00;;;11.50
54746;BMP180;40640;48.130;11.356;2023-04-12T20:30:49;94420.00;;;11.50
54746;BMP180;40640;48.130;11.356;2023-04-12T20:34:55;94432.00;;;11.50
54746;BMP180;40640;48.130;11.356;2023-04-12T20:38:58;94444.00;;;11.40
54746;BMP180;40640;48.130;11.356;2023-04-12T20:43:02;94432.00;;;11.50
54746;BMP180;40640;48.130;11.356;2023-04-12T20:47:06;94444.00;;;11.40
54746;BMP180;40640;48.130;11.356;2023-04-12T20:51:11;94459.00;;;11.50
54746;BMP180;40640;48.130;11.356;2023-04-12T20:55:14;94468.00;;;11.60
54746;BMP180;40640;48.130;11.356;2023-04-12T20:59:17;94485.00;;;11.50
54746;BMP180;40640;48.130;11.356;2023-04-12T21:03:22;94481.00;;;11.30
54746;BMP180;40640;48.130;11.356;2023-04-12T21:07:26;94493.00;;;11.30
54746;BMP180;40640;48.130;11.356;2023-04-12T21:11:29;94497.00;;;11.30
54746;BMP180;40640;48.130;11.356;2023-04-12T21:15:32;94497.00;;;11.20
54746;BMP180;40640;48.130;11.356;2023-04-12T21:19:36;94507.00;;;11.10
54746;BMP180;40640;48.130;11.356;2023-04-12T21:23:42;94503.00;;;11.20
54746;BMP180;40640;48.130;11.356;2023-04-12T21:27:46;94508.00;;;11.10
54746;BMP180;40640;48.130;11.356;2023-04-12T21:31:49;94507.00;;;11.20
54746;BMP180;40640;48.130;11.356;2023-04-12T21:35:53;94519.00;;;11.10
54746;BMP180;40640;48.130;11.356;2023-04-12T21:39:57;94526.00;;;11.10
54746;BMP180;40640;48.130;11.356;2023-04-12T21:44:00;94527.00;;;11.10
54746;BMP180;40640;48.130;11.356;2023-04-12T21:48:03;94537.00;;;11.30
54746;BMP180;40640;48.130;11.356;2023-04-12T21:52:06;94540.00;;;11.10
54746;BMP180;40640;48.130;11.356;2023-04-12T21:56:10;94534.00;;;11.10
54746;BMP180;40640;48.130;11.356;2023-04-12T22:00:13;94511.00;;;11.00
54746;BMP180;40640;48.130;11.356;2023-04-12T22:04:18;94492.00;;;10.90
54746;BMP180;40640;48.130;11.356;2023-04-12T22:08:21;94509.00;;;10.80
54746;BMP180;40640;48.130;11.356;2023-04-12T22:12:26;94508.00;;;10.80
54746;BMP180;40640;48.130;11.356;2023-04-12T22:16:29;94523.00;;;10.70
54746;BMP180;40640;48.130;11.356;2023-04-12T22:20:33;94525.00;;;10.90
54746;BMP180;40640;48.130;11.356;2023-04-12T22:24:36;94539.00;;;10.90
54746;BMP180;40640;48.130;11.356;2023-04-12T22:28:40;94540.00;;;11.00
54746;BMP180;40640;48.130;11.356;2023-04-12T22:32:44;94534.00;;;10.70
54746;BMP180;40640;48.130;11.356;2023-04-12T22:36:47;94523.00;;;10.70
54746;BMP180;40640;48.130;11.356;2023-04-12T22:40:52;94526.00;;;10.50
54746;BMP180;40640;48.130;11.356;2023-04-12T22:45:05;94524.00;;;10.30
54746;BMP180;40640;48.130;11.356;2023-04-12T22:49:10;94527.00;;;10.20
54746;BMP180;40640;48.130;11.356;2023-04-12T22:53:13;94525.00;;;10.30
54746;BMP180;40640;48.130;11.356;2023-04-12T22:57:16;94518.00;;;10.20
54746;BMP180;40640;48.130;11.356;2023-04-12T23:01:20;94518.00;;;10.40
54746;BMP180;40640;48.130;11.356;2023-04-12T23:05:23;94516.00;;;10.20
54746;BMP180;40640;48.130;11.356;2023-04-12T23:09:26;94519.00;;;10.00
54746;BMP180;40640;48.130;11.356;2023-04-12T23:13:30;94521.00;;;10.00
54746;BMP180;40640;48.130;11.356;2023-04-12T23:17:35;94523.00;;;10.10
54746;BMP180;40640;48.130;11.356;2023-04-12T23:21:38;94508.00;;;10.10